Aeroporto :
LOGIN :

Iscrizione | Disclaimer

   EN    FR    IT 

 










Sommario :    VFR   VFR Marginale   IFR   IFR Intensivo   IFR Molto Intensivo
Visibilità : 
Base nubi : 
>= 8 km
>= 3000ft
5 / 8 km
1000 / 3000 ft
1500m / 5 km
500 / 1000 ft
800 / 1500m
200 / 500 ft
< 800m
< 200 ft
Simboli :   Temporali  Nebbia  Neve Forte  Precipitazioni Forti  Vento > 20 kt
SIGMETs :   Varie  Temporali  Ghiacco  Turbolenza  Onda orograficha  Ceneri Vulcaniche






- Altitudine del aeroporto : 19 ft
- Codice IATA : BEB


EGPL - Benbecula

ULTIMO METAR :
  • 141350Z 02011KT 9999 FEW018CB 05/01 Q1014

METARs OBSOLETI :
  • 141320Z 02019KT 9999 FEW016CB SCT025 05/02 Q1014
  • 141250Z 01016KT 9999 FEW016CB SCT025 06/02 Q1014
  • 141220Z 02012KT 9999 FEW015CB SCT028 06/01 Q1014
  • 141150Z 02016KT 9999 VCSH FEW015CB SCT028 06/01 Q1013
  • 141120Z 02012KT 9999 VCSH FEW010CB SCT035 06/01 Q1013

TAF TAF EGPL
Valido dal 14 a 12 ore il 14 a 17 ore UTC


141100Z 1412/1417 35012KT 9999 SCT022
PROB30
TEMPO 1412/1417 36017G27KT 6000 SHRA BKN014
ATIS : +44 1870 604 818



MetMap, La meteo Aeronautica in un colpo d'occhio ! - Copyright ORBIFLY Dicembre 2007 - Disclaimer

ORBIFLY MET'MAP TEAM :

Programmazione e sviluppo : Alexandra Zaïnal
Concezione e sviluppo : Baudouin d'Aumeries
Co-Programmazione e sviluppo : Marc-Olivier Méhu
Supporto tecnico e logistico : Manuel Goepfert
Aiuto per la traduzione : Arnaldo La Scala

Contatto : metmap@orbifly.com




FONTI E CREDITI :

   NOAA